Time;durP1;ratioP1;P1;durP2;ratioP2;P2;SDS_P1;SDS_P2;PMS_P1;PMS_P2;Temp;Humidity;BMP_temperature;BMP_pressure;BME280_temperature;BME280_humidity;BME280_pressure;Samples;Min_cycle;Max_cycle;Signal;HPM_P1;HPM_P2
2022/05/15 01:25:13;;;;;;;;;;;;;;;7.69;71.92;100668.11;82271;1361;22791;-72
2022/05/15 01:27:19;;;;;;;;;;;;;;;7.64;71.88;100669.59;82521;1357;25521;-71
2022/05/15 01:29:30;;;;;;;;;;;;;;;7.62;71.88;100668.44;83005;1352;25425;-71
2022/05/15 01:31:37;;;;;;;;;;;;;;;7.59;71.95;100666.41;83561;1347;23224;-71
2022/05/15 01:33:45;;;;;;;;;;;;;;;7.57;71.73;100666.63;83615;1346;25383;-72
2022/05/15 01:35:51;;;;;;;;;;;;;;;7.53;72.04;100669.83;83583;1346;24391;-71
2022/05/15 01:37:57;;;;;;;;;;;;;;;7.49;72.04;100667.64;83622;1341;22702;-71
2022/05/15 01:40:03;;;;;;;;;;;;;;;7.46;72.15;100671.36;83622;1345;22710;-71
2022/05/15 01:42:10;;;;;;;;;;;;;;;7.43;72.28;100671.09;83546;1346;22610;-71
2022/05/15 01:44:17;;;;;;;;;;;;;;;7.38;72.39;100673.98;83615;1346;22668;-72
2022/05/15 01:46:23;;;;;;;;;;;;;;;7.32;72.49;100676.66;83589;1346;22590;-71
2022/05/15 01:48:30;;;;;;;;;;;;;;;7.30;72.66;100677.77;83585;1346;22623;-71
2022/05/15 01:50:36;;;;;;;;;;;;;;;7.26;72.49;100679.92;83550;1345;22638;-72
2022/05/15 01:52:42;;;;;;;;;;;;;;;7.20;72.60;100683.84;83623;1346;25377;-72
2022/05/15 01:54:48;;;;;;;;;;;;;;;7.16;72.79;100680.29;83639;1341;22593;-72
2022/05/15 01:56:54;;;;;;;;;;;;;;;7.11;72.74;100682.46;83596;1345;22739;-72
2022/05/15 01:59:00;;;;;;;;;;;;;;;7.09;72.83;100682.16;83598;1342;24354;-71
2022/05/15 02:01:05;;;;;;;;;;;;;;;7.06;72.91;100685.52;83610;1345;25387;-71
2022/05/15 02:03:12;;;;;;;;;;;;;;;7.02;73.20;100688.19;83576;1341;23095;-70
2022/05/15 02:05:21;;;;;;;;;;;;;;;6.97;73.24;100686.36;83603;1345;22620;-71
2022/05/15 02:07:27;;;;;;;;;;;;;;;6.93;73.51;100686.42;83603;1345;22598;-72
2022/05/15 02:09:33;;;;;;;;;;;;;;;6.92;73.39;100685.77;83538;1346;22596;-72
2022/05/15 02:11:39;;;;;;;;;;;;;;;6.91;73.75;100689.08;83613;1345;22635;-72
2022/05/15 02:13:46;;;;;;;;;;;;;;;6.91;73.63;100685.44;83604;1345;22702;-72
2022/05/15 02:15:52;;;;;;;;;;;;;;;6.92;73.76;100688.54;83626;1346;25294;-72
2022/05/15 02:17:58;;;;;;;;;;;;;;;6.96;73.75;100692.45;83610;1347;22612;-72
2022/05/15 02:20:05;;;;;;;;;;;;;;;6.99;73.92;100688.76;83598;1346;22610;-72
2022/05/15 02:22:12;;;;;;;;;;;;;;;7.03;73.91;100688.52;83621;1346;22602;-72
2022/05/15 02:24:18;;;;;;;;;;;;;;;7.05;73.97;100690.04;83602;1346;22696;-72
2022/05/15 02:26:24;;;;;;;;;;;;;;;7.08;73.82;100686.50;83611;1341;22780;-72
2022/05/15 02:28:30;;;;;;;;;;;;;;;7.12;73.95;100689.05;83574;1346;24240;-72
2022/05/15 02:30:36;;;;;;;;;;;;;;;7.13;73.84;100687.98;83594;1347;25569;-72
2022/05/15 02:32:42;;;;;;;;;;;;;;;7.09;73.68;100689.97;83550;1346;24305;-72
2022/05/15 02:34:48;;;;;;;;;;;;;;;7.07;73.90;100693.81;83624;1345;26576;-72
2022/05/15 02:36:54;;;;;;;;;;;;;;;7.04;73.66;100694.04;83569;1345;22593;-72
2022/05/15 02:39:00;;;;;;;;;;;;;;;7.02;73.63;100695.48;83585;1346;23014;-72
2022/05/15 02:41:06;;;;;;;;;;;;;;;6.99;73.65;100695.35;83612;1346;22626;-72
2022/05/15 02:43:12;;;;;;;;;;;;;;;6.95;73.65;100698.88;83600;1346;22609;-72
2022/05/15 02:45:18;;;;;;;;;;;;;;;6.91;73.61;100695.66;83588;1346;22654;-72
2022/05/15 02:47:24;;;;;;;;;;;;;;;6.88;73.66;100698.32;83613;1347;22636;-72
2022/05/15 02:51:54;;;;;;;;;;;;;;;6.81;73.74;100692.38;83599;1345;22633;-72
2022/05/15 02:54:00;;;;;;;;;;;;;;;6.78;73.93;100696.23;83572;1342;22637;-72
2022/05/15 02:56:09;;;;;;;;;;;;;;;6.75;73.96;100700.63;83608;1346;24496;-72
2022/05/15 02:58:15;;;;;;;;;;;;;;;6.72;74.36;100704.32;83604;1345;22593;-72
2022/05/15 03:00:22;;;;;;;;;;;;;;;6.68;74.32;100702.46;83573;1346;22603;-72
2022/05/15 03:02:28;;;;;;;;;;;;;;;6.66;74.37;100704.59;83627;1343;22623;-72
2022/05/15 03:04:36;;;;;;;;;;;;;;;6.63;74.37;100707.23;83513;1346;22682;-73
2022/05/15 03:06:42;;;;;;;;;;;;;;;6.61;74.45;100702.08;83601;1346;22693;-72
2022/05/15 03:08:50;;;;;;;;;;;;;;;6.61;74.32;100704.86;83578;1345;26805;-72
2022/05/15 03:10:56;;;;;;;;;;;;;;;6.61;74.73;100705.55;83602;1343;22820;-72
2022/05/15 03:13:02;;;;;;;;;;;;;;;6.62;74.88;100707.24;83612;1345;23182;-72
2022/05/15 03:15:12;;;;;;;;;;;;;;;6.64;75.09;100706.87;83595;1346;24448;-72
2022/05/15 03:17:18;;;;;;;;;;;;;;;6.66;75.04;100706.16;83605;1347;25310;-72
2022/05/15 03:19:24;;;;;;;;;;;;;;;6.68;75.01;100706.63;83522;1346;25065;-71
2022/05/15 03:21:29;;;;;;;;;;;;;;;6.69;75.12;100708.88;83514;1346;22574;-72
2022/05/15 03:23:36;;;;;;;;;;;;;;;6.71;75.18;100713.70;83543;1345;23294;-72
2022/05/15 03:25:41;;;;;;;;;;;;;;;6.74;75.20;100715.02;83503;1347;24316;-72
2022/05/15 03:27:47;;;;;;;;;;;;;;;6.77;75.26;100715.50;83485;1346;22580;-72
2022/05/15 03:29:53;;;;;;;;;;;;;;;6.79;75.39;100710.96;83502;1346;23857;-72
2022/05/15 03:31:59;;;;;;;;;;;;;;;6.83;75.43;100714.36;83507;1346;25507;-72
2022/05/15 03:34:06;;;;;;;;;;;;;;;6.87;75.59;100712.39;83511;1346;23710;-72
2022/05/15 03:36:12;;;;;;;;;;;;;;;6.91;75.55;100716.29;83556;1346;22623;-72
2022/05/15 03:38:18;;;;;;;;;;;;;;;7.04;75.57;100716.25;83588;1346;22600;-72
2022/05/15 03:40:24;;;;;;;;;;;;;;;7.38;75.94;100717.35;83571;1346;22668;-72
2022/05/15 03:42:30;;;;;;;;;;;;;;;7.95;76.67;100718.26;83587;1346;25591;-73
2022/05/15 03:44:37;;;;;;;;;;;;;;;8.81;77.64;100719.23;83594;1346;25583;-73
2022/05/15 03:46:44;;;;;;;;;;;;;;;9.77;78.16;100717.83;83595;1346;22595;-73
2022/05/15 03:48:50;;;;;;;;;;;;;;;10.76;77.05;100717.05;83590;1346;22597;-73
2022/05/15 03:50:56;;;;;;;;;;;;;;;11.73;75.44;100713.80;83569;1345;22853;-73
2022/05/15 03:53:02;;;;;;;;;;;;;;;12.64;72.03;100720.23;83603;1346;22583;-72
2022/05/15 03:55:10;;;;;;;;;;;;;;;13.45;69.56;100717.52;83613;1345;22590;-73
2022/05/15 03:57:16;;;;;;;;;;;;;;;14.22;65.90;100716.95;83633;1347;22583;-71
2022/05/15 03:59:23;;;;;;;;;;;;;;;14.93;63.73;100715.80;83612;1342;22599;-73
2022/05/15 04:01:29;;;;;;;;;;;;;;;15.58;61.20;100716.83;83524;1346;22575;-73
2022/05/15 04:03:35;;;;;;;;;;;;;;;16.15;58.41;100713.54;83605;1346;22729;-73
2022/05/15 04:05:41;;;;;;;;;;;;;;;16.73;56.97;100719.77;83579;1345;26469;-73
2022/05/15 04:07:48;;;;;;;;;;;;;;;17.25;54.74;100721.30;83601;1346;22604;-73
2022/05/15 04:09:53;;;;;;;;;;;;;;;17.80;53.39;100717.77;83612;1343;22658;-73
2022/05/15 04:11:59;;;;;;;;;;;;;;;18.16;51.30;100721.48;83579;1343;22594;-73
2022/05/15 04:14:05;;;;;;;;;;;;;;;18.28;50.57;100721.95;83582;1345;23344;-73
2022/05/15 04:16:11;;;;;;;;;;;;;;;18.08;49.47;100725.77;83602;1342;22618;-73
2022/05/15 04:18:18;;;;;;;;;;;;;;;17.61;49.58;100729.85;83596;1346;22588;-74
2022/05/15 04:20:26;;;;;;;;;;;;;;;17.06;49.62;100738.49;83470;1347;195784;-73
2022/05/15 04:22:32;;;;;;;;;;;;;;;16.50;50.38;100740.66;83632;1345;22651;-74
2022/05/15 04:24:38;;;;;;;;;;;;;;;15.98;51.13;100744.26;83572;1346;22637;-73
2022/05/15 04:26:46;;;;;;;;;;;;;;;15.59;51.72;100744.39;83606;1345;22882;-73
2022/05/15 04:28:52;;;;;;;;;;;;;;;15.15;52.26;100747.87;83592;1340;24281;-73
2022/05/15 04:30:58;;;;;;;;;;;;;;;14.79;53.14;100752.02;83615;1347;25397;-73
2022/05/15 04:33:05;;;;;;;;;;;;;;;14.47;54.02;100751.39;83632;1347;22682;-73
2022/05/15 04:35:11;;;;;;;;;;;;;;;14.28;54.84;100749.16;83578;1345;24409;-74
2022/05/15 04:37:17;;;;;;;;;;;;;;;14.12;55.06;100753.39;83603;1345;22623;-73
2022/05/15 04:39:23;;;;;;;;;;;;;;;13.97;55.77;100749.91;83564;1346;22703;-73
2022/05/15 04:41:29;;;;;;;;;;;;;;;14.01;56.17;100751.10;83579;1347;22618;-73
2022/05/15 04:43:35;;;;;;;;;;;;;;;14.43;56.21;100749.85;83594;1346;25986;-73
2022/05/15 04:45:41;;;;;;;;;;;;;;;15.14;55.96;100749.52;83591;1346;22621;-73
2022/05/15 04:47:47;;;;;;;;;;;;;;;16.10;55.03;100751.70;83571;1347;24365;-73
2022/05/15 04:49:53;;;;;;;;;;;;;;;17.01;53.39;100747.25;83566;1346;25952;-73
2022/05/15 04:51:59;;;;;;;;;;;;;;;17.86;51.72;100741.60;83596;1345;22678;-73
2022/05/15 04:54:05;;;;;;;;;;;;;;;18.70;49.36;100738.33;83591;1346;22643;-73
2022/05/15 04:56:11;;;;;;;;;;;;;;;19.54;47.92;100740.23;83602;1346;24426;-74
2022/05/15 04:58:17;;;;;;;;;;;;;;;20.33;45.85;100740.45;83581;1345;23889;-74
2022/05/15 05:00:23;;;;;;;;;;;;;;;20.99;44.40;100742.17;83594;1345;25286;-74
2022/05/15 05:02:29;;;;;;;;;;;;;;;21.74;42.69;100738.89;83581;1346;25457;-74
2022/05/15 05:04:35;;;;;;;;;;;;;;;22.37;40.53;100741.08;83575;1341;22610;-74
2022/05/15 05:06:41;;;;;;;;;;;;;;;22.99;39.72;100739.39;83605;1346;22615;-74
2022/05/15 05:08:47;;;;;;;;;;;;;;;23.61;38.50;100739.27;83609;1341;22603;-74
2022/05/15 05:10:53;;;;;;;;;;;;;;;24.13;37.47;100739.70;83598;1346;22598;-74
2022/05/15 05:12:59;;;;;;;;;;;;;;;24.60;35.78;100744.58;83604;1347;22596;-74
2022/05/15 05:15:06;;;;;;;;;;;;;;;24.97;34.81;100748.48;83600;1344;22596;-74
2022/05/15 05:17:12;;;;;;;;;;;;;;;25.28;34.05;100751.30;83559;1345;22602;-74
2022/05/15 05:19:18;;;;;;;;;;;;;;;25.65;32.95;100751.20;83572;1341;24499;-74
2022/05/15 05:21:24;;;;;;;;;;;;;;;25.99;32.71;100749.41;83603;1345;22613;-74
2022/05/15 05:23:30;;;;;;;;;;;;;;;26.36;31.01;100751.26;83594;1345;22625;-74
2022/05/15 05:25:36;;;;;;;;;;;;;;;26.53;30.78;100754.14;83582;1342;22605;-74
2022/05/15 05:27:43;;;;;;;;;;;;;;;26.80;30.28;100750.88;83538;1346;22625;-74
2022/05/15 05:29:49;;;;;;;;;;;;;;;27.20;29.36;100754.20;83522;1345;24302;-74
2022/05/15 05:31:55;;;;;;;;;;;;;;;27.38;28.97;100750.89;83606;1348;24219;-74
2022/05/15 05:34:01;;;;;;;;;;;;;;;27.39;28.29;100747.23;83575;1347;24425;-71
2022/05/15 05:36:07;;;;;;;;;;;;;;;27.53;28.20;100744.02;83585;1345;22685;-74
2022/05/15 05:38:13;;;;;;;;;;;;;;;27.74;27.72;100750.02;83595;1346;22648;-74
2022/05/15 05:40:19;;;;;;;;;;;;;;;27.93;26.96;100748.73;83589;1345;22580;-73
2022/05/15 05:42:25;;;;;;;;;;;;;;;28.06;26.92;100751.30;83574;1344;22581;-73
2022/05/15 05:44:32;;;;;;;;;;;;;;;28.24;26.32;100746.93;83607;1345;24360;-74
2022/05/15 05:46:38;;;;;;;;;;;;;;;28.25;26.20;100745.17;83596;1342;22612;-73
2022/05/15 05:48:45;;;;;;;;;;;;;;;28.39;26.21;100743.53;83631;1348;22600;-73
2022/05/15 05:50:54;;;;;;;;;;;;;;;28.61;25.53;100742.80;83581;1346;24724;-73
2022/05/15 05:53:01;;;;;;;;;;;;;;;28.81;25.32;100746.23;83502;1346;22558;-73
2022/05/15 05:55:10;;;;;;;;;;;;;;;28.80;24.88;100744.60;83566;1345;22594;-73
2022/05/15 05:57:16;;;;;;;;;;;;;;;28.79;24.83;100741.33;83585;1345;22595;-73
2022/05/15 05:59:22;;;;;;;;;;;;;;;28.86;25.38;100746.02;83612;1343;22614;-73
2022/05/15 06:01:28;;;;;;;;;;;;;;;29.05;24.80;100750.60;83590;1346;22610;-73
2022/05/15 06:05:58;;;;;;;;;;;;;;;29.71;24.31;100748.05;83602;1341;22776;-74
2022/05/15 06:08:04;;;;;;;;;;;;;;;30.08;23.46;100751.17;83586;1347;22594;-72
2022/05/15 06:10:11;;;;;;;;;;;;;;;30.27;22.77;100748.25;83590;1344;22591;-73
2022/05/15 06:12:20;;;;;;;;;;;;;;;30.18;22.87;100746.70;83558;1345;22609;-73
2022/05/15 06:14:26;;;;;;;;;;;;;;;30.02;22.75;100747.59;83605;1346;22607;-73
2022/05/15 06:16:32;;;;;;;;;;;;;;;29.80;22.81;100749.34;83614;1346;25594;-74
2022/05/15 06:18:39;;;;;;;;;;;;;;;29.81;22.92;100753.91;83572;1346;25636;-73
2022/05/15 06:20:46;;;;;;;;;;;;;;;29.98;22.91;100756.17;83552;1346;25480;-73
2022/05/15 06:22:52;;;;;;;;;;;;;;;30.11;22.70;100756.49;83570;1346;22603;-72
2022/05/15 06:24:58;;;;;;;;;;;;;;;30.45;22.50;100756.90;83577;1345;25299;-73
2022/05/15 06:27:04;;;;;;;;;;;;;;;30.74;21.62;100759.98;83578;1346;22739;-73
2022/05/15 06:29:10;;;;;;;;;;;;;;;30.88;21.52;100760.89;83584;1345;25516;-73
2022/05/15 06:31:16;;;;;;;;;;;;;;;31.05;21.29;100757.20;83572;1345;22595;-73
2022/05/15 06:33:22;;;;;;;;;;;;;;;31.22;21.39;100762.58;83594;1346;22711;-73
2022/05/15 06:35:28;;;;;;;;;;;;;;;31.26;21.25;100759.34;83590;1346;22650;-73
2022/05/15 06:37:34;;;;;;;;;;;;;;;31.18;21.30;100762.45;83591;1345;22592;-72
2022/05/15 06:39:40;;;;;;;;;;;;;;;31.39;21.50;100767.33;83596;1342;22581;-73
2022/05/15 06:41:50;;;;;;;;;;;;;;;31.85;20.72;100761.08;83566;1346;22648;-73
2022/05/15 06:43:56;;;;;;;;;;;;;;;31.86;20.17;100763.34;83549;1345;22626;-72
2022/05/15 06:46:02;;;;;;;;;;;;;;;32.09;20.58;100762.02;83573;1347;22728;-73
2022/05/15 06:48:09;;;;;;;;;;;;;;;32.53;20.27;100760.06;83551;1346;26695;-73
2022/05/15 06:50:15;;;;;;;;;;;;;;;32.38;19.71;100763.59;83613;1346;22724;-72
2022/05/15 06:52:22;;;;;;;;;;;;;;;31.89;19.80;100761.73;83564;1345;25484;-74
2022/05/15 06:54:28;;;;;;;;;;;;;;;31.43;20.15;100766.54;83580;1346;25547;-73
2022/05/15 06:58:58;;;;;;;;;;;;;;;31.66;19.90;100770.82;83551;1346;22598;-72
2022/05/15 07:01:04;;;;;;;;;;;;;;;31.48;19.89;100773.48;83559;1344;22660;-72
2022/05/15 07:03:10;;;;;;;;;;;;;;;30.94;20.56;100776.80;83568;1345;22649;-72
2022/05/15 07:05:19;;;;;;;;;;;;;;;30.73;21.23;100772.66;83483;1347;22613;-73
2022/05/15 07:07:25;;;;;;;;;;;;;;;30.95;20.91;100774.07;83578;1346;22706;-72
2022/05/15 07:09:32;;;;;;;;;;;;;;;31.17;20.16;100776.65;83566;1346;22599;-72
2022/05/15 07:11:39;;;;;;;;;;;;;;;31.21;20.32;100777.05;83575;1345;22600;-73
2022/05/15 07:13:45;;;;;;;;;;;;;;;31.07;20.57;100778.53;83514;1347;22735;-73
2022/05/15 07:15:51;;;;;;;;;;;;;;;30.53;20.31;100777.30;83666;1345;22655;-72
2022/05/15 07:17:57;;;;;;;;;;;;;;;30.07;20.72;100786.36;83678;1345;22582;-72
2022/05/15 07:20:05;;;;;;;;;;;;;;;29.21;21.05;100788.81;83676;1341;22627;-72
2022/05/15 07:22:11;;;;;;;;;;;;;;;28.88;22.34;100781.87;83689;1344;22612;-72
2022/05/15 07:24:20;;;;;;;;;;;;;;;28.78;22.47;100787.05;83575;1345;22584;-72
2022/05/15 07:26:26;;;;;;;;;;;;;;;28.65;22.64;100785.61;83684;1346;25282;-72
2022/05/15 07:28:32;;;;;;;;;;;;;;;28.78;22.98;100788.16;83682;1345;22585;-73
2022/05/15 07:30:39;;;;;;;;;;;;;;;29.25;22.76;100788.98;83647;1344;22617;-72
2022/05/15 07:32:46;;;;;;;;;;;;;;;29.76;22.01;100788.32;83689;1346;25409;-73
2022/05/15 07:34:52;;;;;;;;;;;;;;;29.50;21.48;100791.89;83647;1344;22583;-73
2022/05/15 07:36:58;;;;;;;;;;;;;;;28.66;21.93;100787.49;83618;1344;22649;-75
2022/05/15 07:39:05;;;;;;;;;;;;;;;27.88;22.35;100798.77;83662;1345;22635;-73
2022/05/15 07:41:11;;;;;;;;;;;;;;;27.18;23.20;100802.69;83698;1345;22608;-73
2022/05/15 07:43:17;;;;;;;;;;;;;;;26.63;23.98;100803.96;83682;1344;22616;-73
2022/05/15 07:45:23;;;;;;;;;;;;;;;27.08;24.27;100805.39;83596;1345;22712;-73
2022/05/15 07:47:29;;;;;;;;;;;;;;;27.33;23.43;100808.17;83659;1346;22721;-73
2022/05/15 07:49:35;;;;;;;;;;;;;;;27.20;23.37;100806.67;83644;1345;22594;-73
2022/05/15 07:51:44;;;;;;;;;;;;;;;27.24;23.71;100807.74;83660;1344;22615;-73
2022/05/15 07:53:50;;;;;;;;;;;;;;;27.74;23.66;100809.00;83671;1344;25341;-73
2022/05/15 07:55:59;;;;;;;;;;;;;;;28.04;23.21;100806.45;83634;1345;22585;-74
2022/05/15 07:58:05;;;;;;;;;;;;;;;28.26;23.01;100804.79;83628;1344;22599;-73
2022/05/15 08:00:14;;;;;;;;;;;;;;;28.43;22.97;100804.31;83662;1344;22587;-75
2022/05/15 08:02:27;;;;;;;;;;;;;;;28.91;22.52;100808.12;83701;1347;22680;-73
2022/05/15 08:08:00;;;;;;;;;;;;;;;29.61;22.29;100808.17;83666;1344;22593;-72
2022/05/15 08:09:24;;;;;;;;;;;;;;;30.45;20.96;100812.16;83667;1344;22871;-73
2022/05/15 08:11:32;;;;;;;;;;;;;;;29.92;20.64;100812.98;83688;1345;22703;-73
2022/05/15 08:13:38;;;;;;;;;;;;;;;29.67;21.37;100816.46;83667;1344;22713;-72
2022/05/15 08:15:44;;;;;;;;;;;;;;;29.94;21.09;100817.33;83593;1346;22594;-73
2022/05/15 08:17:50;;;;;;;;;;;;;;;30.18;20.45;100814.39;83687;1344;24300;-73
2022/05/15 08:24:46;;;;;;;;;;;;;;;30.60;20.19;100822.26;83697;1344;22658;-73
2022/05/15 08:26:52;;;;;;;;;;;;;;;30.27;20.53;100824.84;83698;1348;22619;-72
2022/05/15 08:28:58;;;;;;;;;;;;;;;30.55;20.26;100820.88;83679;1344;24451;-73
2022/05/15 08:31:04;;;;;;;;;;;;;;;30.98;20.37;100820.23;83578;1347;22585;-73
2022/05/15 08:33:11;;;;;;;;;;;;;;;31.36;20.52;100817.02;83686;1347;22714;-73
2022/05/15 08:35:20;;;;;;;;;;;;;;;31.92;20.03;100817.98;83588;1345;24263;-72
2022/05/15 08:37:25;;;;;;;;;;;;;;;32.50;19.80;100817.52;83591;1346;22597;-72
2022/05/15 08:39:31;;;;;;;;;;;;;;;32.58;18.75;100815.52;83701;1344;22579;-73
2022/05/15 08:41:43;;;;;;;;;;;;;;;32.48;19.21;100820.10;83695;1347;24067;-72
2022/05/15 08:43:52;;;;;;;;;;;;;;;32.79;18.91;100819.70;83706;1346;22639;-73
2022/05/15 08:46:03;;;;;;;;;;;;;;;32.49;18.36;100821.94;83734;1345;22616;-73
2022/05/15 08:48:12;;;;;;;;;;;;;;;31.31;18.68;100825.14;83607;1346;22817;-73
2022/05/15 08:50:20;;;;;;;;;;;;;;;30.43;19.58;100831.69;83692;1344;22727;-73
2022/05/15 08:52:30;;;;;;;;;;;;;;;30.34;20.37;100829.20;83698;1341;22596;-73
2022/05/15 08:54:37;;;;;;;;;;;;;;;30.60;21.00;100827.52;83591;1346;22596;-73
2022/05/15 08:56:49;;;;;;;;;;;;;;;30.54;20.34;100830.51;83683;1344;22616;-73
2022/05/15 08:58:56;;;;;;;;;;;;;;;30.08;20.68;100842.09;83594;1346;25390;-73
2022/05/15 09:01:02;;;;;;;;;;;;;;;30.08;20.61;100832.55;83574;1346;22788;-72
2022/05/15 09:03:15;;;;;;;;;;;;;;;30.35;20.51;100833.95;83555;1345;22619;-72
2022/05/15 09:05:27;;;;;;;;;;;;;;;30.53;20.55;100834.80;83579;1345;25516;-73
2022/05/15 09:07:43;;;;;;;;;;;;;;;30.06;20.74;100838.73;83700;1346;22672;-73
2022/05/15 09:09:53;;;;;;;;;;;;;;;29.30;20.71;100842.52;83683;1345;22872;-72
2022/05/15 09:12:06;;;;;;;;;;;;;;;29.26;21.82;100842.59;83651;1346;22640;-70
2022/05/15 09:14:15;;;;;;;;;;;;;;;29.44;21.58;100839.11;83556;1345;26652;-72
2022/05/15 09:16:22;;;;;;;;;;;;;;;29.71;21.14;100837.05;83574;1345;22654;-74
2022/05/15 09:18:28;;;;;;;;;;;;;;;29.86;21.31;100837.90;83580;1345;22648;-73
2022/05/15 09:20:40;;;;;;;;;;;;;;;29.54;21.35;100840.07;83658;1348;22606;-73
2022/05/15 09:22:49;;;;;;;;;;;;;;;28.65;20.84;100843.23;83710;1344;22617;-73
2022/05/15 09:24:55;;;;;;;;;;;;;;;27.60;21.79;100848.28;83686;1344;22586;-74
2022/05/15 09:27:12;;;;;;;;;;;;;;;27.20;23.28;100848.96;83679;1344;22615;-73
2022/05/15 09:29:22;;;;;;;;;;;;;;;27.28;23.80;100844.77;83703;1344;22575;-74
2022/05/15 09:31:38;;;;;;;;;;;;;;;27.33;23.96;100846.21;83607;1346;22696;-73
2022/05/15 09:33:47;;;;;;;;;;;;;;;27.15;23.11;100850.11;83604;1345;22674;-73
2022/05/15 09:35:53;;;;;;;;;;;;;;;26.85;23.15;100853.43;83584;1343;22607;-74
2022/05/15 09:40:25;;;;;;;;;;;;;;;26.52;23.51;100849.94;83669;1344;22672;-73
2022/05/15 09:44:58;;;;;;;;;;;;;;;25.80;24.32;100855.89;83586;1346;22627;-74
2022/05/15 09:47:20;;;;;;;;;;;;;;;25.52;24.53;100857.87;83676;1347;22616;-73
2022/05/15 09:49:27;;;;;;;;;;;;;;;25.22;24.67;100864.17;83642;1344;22613;-72
2022/05/15 09:51:41;;;;;;;;;;;;;;;25.20;25.25;100857.55;83718;1342;22592;-72
2022/05/15 09:53:50;;;;;;;;;;;;;;;25.37;25.39;100858.34;83693;1344;22726;-74
2022/05/15 09:56:00;;;;;;;;;;;;;;;25.25;25.81;100862.48;83575;1345;22623;-74
2022/05/15 09:58:07;;;;;;;;;;;;;;;25.15;25.97;100864.76;83616;1343;22609;-74
2022/05/15 10:00:17;;;;;;;;;;;;;;;25.22;25.85;100862.63;83603;1340;24334;-73
2022/05/15 10:02:24;;;;;;;;;;;;;;;25.43;25.66;100863.81;83709;1344;22661;-74
2022/05/15 10:04:31;;;;;;;;;;;;;;;25.62;25.97;100864.94;83582;1346;22592;-73
2022/05/15 10:06:51;;;;;;;;;;;;;;;25.58;26.09;100865.15;83615;1345;22617;-72
2022/05/15 10:09:09;;;;;;;;;;;;;;;25.63;25.60;100857.89;83582;1346;22596;-72
2022/05/15 10:11:18;;;;;;;;;;;;;;;25.42;25.33;100857.02;83609;1346;22619;-73
2022/05/15 10:13:29;;;;;;;;;;;;;;;25.03;25.62;100860.70;83708;1346;25400;-73
2022/05/15 10:15:40;;;;;;;;;;;;;;;24.66;25.84;100863.55;83613;1346;22607;-72
2022/05/15 10:17:50;;;;;;;;;;;;;;;24.59;26.30;100856.99;83642;1346;22603;-73
2022/05/15 10:20:09;;;;;;;;;;;;;;;24.67;26.84;100854.64;83676;1344;25450;-73
2022/05/15 10:22:32;;;;;;;;;;;;;;;24.73;26.47;100856.65;83547;1345;22631;-73
2022/05/15 10:24:40;;;;;;;;;;;;;;;24.47;25.25;100854.73;83592;1345;22622;-74
2022/05/15 10:26:53;;;;;;;;;;;;;;;24.04;25.51;100856.66;83648;1344;22609;-74
2022/05/15 10:29:04;;;;;;;;;;;;;;;23.83;26.19;100859.90;83572;1345;25482;-74
2022/05/15 10:31:16;;;;;;;;;;;;;;;23.91;27.38;100862.40;83587;1346;22643;-72
2022/05/15 10:33:22;;;;;;;;;;;;;;;24.12;27.38;100859.69;83531;1343;22602;-72
2022/05/15 10:35:31;;;;;;;;;;;;;;;24.33;27.60;100857.32;83669;1347;22605;-74
2022/05/15 10:37:49;;;;;;;;;;;;;;;24.45;26.94;100853.81;83660;1344;24324;-73
2022/05/15 10:40:06;;;;;;;;;;;;;;;24.27;26.73;100853.22;83569;1346;22588;-72
2022/05/15 10:42:16;;;;;;;;;;;;;;;24.17;27.06;100850.54;83707;1344;22609;-72
2022/05/15 10:44:31;;;;;;;;;;;;;;;24.17;27.50;100852.45;83609;1346;23129;-72
2022/05/15 10:46:48;;;;;;;;;;;;;;;24.04;26.97;100856.81;83567;1345;22623;-72
2022/05/15 10:49:19;;;;;;;;;;;;;;;23.94;27.05;100857.36;83673;1344;22601;-72
2022/05/15 10:51:25;;;;;;;;;;;;;;;23.58;26.48;100855.92;83709;1344;22605;-74
2022/05/15 10:58:58;;;;;;;;;;;;;;;22.52;27.90;100854.59;83636;1342;24254;-76
2022/05/15 11:01:08;;;;;;;;;;;;;;;22.38;28.27;100854.66;83557;1341;22624;-78
2022/05/15 11:03:22;;;;;;;;;;;;;;;22.46;28.97;100852.17;83547;1346;23900;-73
2022/05/15 11:05:30;;;;;;;;;;;;;;;22.64;29.20;100847.90;83598;1346;22630;-73
2022/05/15 11:07:38;;;;;;;;;;;;;;;22.76;28.80;100848.33;83688;1344;22611;-73
2022/05/15 11:10:02;;;;;;;;;;;;;;;22.93;28.64;100845.61;83716;1344;22759;-72
2022/05/15 11:12:19;;;;;;;;;;;;;;;23.06;28.92;100839.98;83703;1344;22613;-72
2022/05/15 11:14:29;;;;;;;;;;;;;;;23.21;28.93;100839.86;83687;1344;22881;-72
2022/05/15 11:16:38;;;;;;;;;;;;;;;23.16;28.38;100842.09;83515;1342;22596;-73
2022/05/15 11:18:53;;;;;;;;;;;;;;;22.96;28.18;100843.02;83681;1344;22645;-73
2022/05/15 11:21:01;;;;;;;;;;;;;;;22.77;28.22;100840.81;83566;1346;23062;-73
2022/05/15 11:23:11;;;;;;;;;;;;;;;22.59;28.47;100837.30;83604;1347;25422;-73
2022/05/15 11:25:19;;;;;;;;;;;;;;;22.41;28.92;100836.08;83589;1346;22582;-72
2022/05/15 11:27:28;;;;;;;;;;;;;;;22.31;29.01;100839.34;83677;1344;22604;-73
2022/05/15 11:29:35;;;;;;;;;;;;;;;22.13;28.88;100845.07;83615;1345;25571;-73
2022/05/15 11:31:46;;;;;;;;;;;;;;;21.97;29.13;100848.77;83686;1344;24303;-72
2022/05/15 11:33:54;;;;;;;;;;;;;;;22.02;29.46;100843.77;83588;1346;25525;-72
2022/05/15 11:36:12;;;;;;;;;;;;;;;22.20;29.68;100837.74;83597;1347;23064;-73
2022/05/15 11:38:27;;;;;;;;;;;;;;;22.22;28.99;100833.67;83714;1344;22616;-73
2022/05/15 11:40:36;;;;;;;;;;;;;;;22.22;29.04;100833.36;83585;1347;22639;-72
2022/05/15 11:42:42;;;;;;;;;;;;;;;22.34;29.22;100830.77;83595;1345;22613;-72
2022/05/15 11:44:49;;;;;;;;;;;;;;;22.32;29.20;100827.22;83568;1345;22603;-72
2022/05/15 11:47:20;;;;;;;;;;;;;;;22.21;29.27;100832.21;83607;1346;22674;-73
2022/05/15 11:49:29;;;;;;;;;;;;;;;22.22;29.87;100829.58;83601;1342;22625;-72
2022/05/15 11:51:35;;;;;;;;;;;;;;;22.17;29.20;100828.05;83707;1344;22608;-72
2022/05/15 11:53:53;;;;;;;;;;;;;;;21.97;29.11;100828.02;83705;1346;25307;-72
2022/05/15 11:55:59;;;;;;;;;;;;;;;21.70;29.37;100828.12;83598;1345;22607;-72
2022/05/15 11:58:27;;;;;;;;;;;;;;;21.61;29.58;100827.11;83657;1343;22857;-73
2022/05/15 12:00:34;;;;;;;;;;;;;;;21.49;30.08;100828.50;83635;1342;22906;-73
2022/05/15 12:02:50;;;;;;;;;;;;;;;21.46;29.93;100829.67;83620;1344;22657;-73
2022/05/15 12:05:01;;;;;;;;;;;;;;;21.48;30.19;100830.61;83566;1341;22616;-72
2022/05/15 12:07:47;;;;;;;;;;;;;;;21.45;30.14;100828.35;83660;1345;22586;-71
2022/05/15 12:09:54;;;;;;;;;;;;;;;21.20;29.88;100829.05;83416;1346;22584;-71
2022/05/15 12:12:20;;;;;;;;;;;;;;;21.01;30.11;100828.88;83556;1345;22592;-72
2022/05/15 12:14:35;;;;;;;;;;;;;;;20.86;30.31;100828.61;83650;1345;22704;-71
2022/05/15 12:16:53;;;;;;;;;;;;;;;20.77;30.41;100827.67;83597;1346;25519;-71
2022/05/15 12:19:03;;;;;;;;;;;;;;;20.76;30.65;100822.42;83554;1342;195242;-72
2022/05/15 12:21:09;;;;;;;;;;;;;;;20.72;30.21;100825.02;83599;1346;22605;-72
2022/05/15 12:23:18;;;;;;;;;;;;;;;20.77;30.85;100825.01;83602;1344;22596;-73
2022/05/15 12:25:29;;;;;;;;;;;;;;;20.85;30.72;100821.63;83600;1346;22612;-72
2022/05/15 12:27:35;;;;;;;;;;;;;;;20.80;30.26;100816.98;83579;1347;22639;-73
2022/05/15 12:29:57;;;;;;;;;;;;;;;20.79;30.49;100813.37;83693;1344;25342;-70
2022/05/15 12:32:04;;;;;;;;;;;;;;;20.83;30.55;100812.85;83565;1346;22626;-71
2022/05/15 12:34:12;;;;;;;;;;;;;;;20.97;30.50;100815.89;83687;1344;22593;-71
2022/05/15 12:36:21;;;;;;;;;;;;;;;20.99;30.22;100812.77;83667;1344;22608;-71
2022/05/15 12:38:27;;;;;;;;;;;;;;;20.92;30.09;100811.38;83663;1344;22599;-71
2022/05/15 12:40:35;;;;;;;;;;;;;;;20.91;30.56;100812.09;83665;1344;22593;-71
2022/05/15 12:42:42;;;;;;;;;;;;;;;20.92;30.53;100809.03;83662;1344;22624;-71
2022/05/15 12:45:00;;;;;;;;;;;;;;;21.00;30.54;100804.17;83674;1344;24363;-72
2022/05/15 12:47:09;;;;;;;;;;;;;;;21.13;30.41;100806.73;83695;1342;22663;-71
2022/05/15 12:49:29;;;;;;;;;;;;;;;21.26;30.24;100809.09;83695;1342;22596;-72